Time;durP1;ratioP1;P1;durP2;ratioP2;P2;SDS_P1;SDS_P2;PMS_P1;PMS_P2;Temp;Humidity;BMP_temperature;BMP_pressure;BME280_temperature;BME280_humidity;BME280_pressure;Samples;Min_cycle;Max_cycle;Signal;HPM_P1;HPM_P2
2022/05/01 00:00:36;;;;;;;19.30;9.90;;;;;;;7.30;58.82;98856.86;106417;1277;24264;-86
2022/05/01 00:03:08;;;;;;;14.90;9.20;;;;;;;7.31;58.32;98855.37;106312;1277;137283;-84
2022/05/01 00:05:34;;;;;;;20.70;11.20;;;;;;;7.33;58.62;98858.69;106319;1277;22549;-85
2022/05/01 00:08:04;;;;;;;22.30;11.20;;;;;;;7.25;60.84;98868.30;106092;1277;24376;-85
2022/05/01 00:10:31;;;;;;;23.90;13.50;;;;;;;7.03;61.73;98867.11;106414;1277;137637;-85
2022/05/01 00:12:58;;;;;;;23.30;13.20;;;;;;;6.85;62.22;98864.95;106109;1277;24263;-84
2022/05/01 00:15:24;;;;;;;26.90;13.60;;;;;;;6.76;62.20;98862.92;106688;1275;137043;-85
2022/05/01 00:18:06;;;;;;;21.40;12.20;;;;;;;6.69;62.53;98865.79;106369;1277;24232;-85
2022/05/01 00:20:47;;;;;;;16.10;11.20;;;;;;;6.61;62.61;98867.44;106175;1277;138026;-85
2022/05/01 00:23:17;;;;;;;18.50;10.20;;;;;;;6.55;62.43;98872.75;106435;1277;24240;-85
2022/05/01 00:25:46;;;;;;;15.20;10.30;;;;;;;6.50;62.43;98874.01;106517;1277;24498;-85
2022/05/01 00:28:14;;;;;;;15.10;10.00;;;;;;;6.47;62.01;98870.38;106343;1277;137777;-84
2022/05/01 00:30:42;;;;;;;15.50;8.90;;;;;;;6.46;62.13;98867.14;106229;1278;25377;-84
2022/05/01 00:38:34;;;;;;;16.20;9.60;;;;;;;6.47;61.05;98860.65;106084;1279;137611;-86
2022/05/01 00:41:03;;;;;;;16.60;8.90;;;;;;;6.48;60.72;98853.91;106330;1277;22592;-85
2022/05/01 00:43:30;;;;;;;14.40;7.90;;;;;;;6.50;60.08;98856.27;106334;1277;24273;-86
2022/05/01 00:45:57;;;;;;;15.30;8.50;;;;;;;6.53;60.18;98855.94;105895;1277;136977;-85
2022/05/01 00:48:23;;;;;;;15.10;7.80;;;;;;;6.55;59.82;98849.45;106272;1277;22621;-85
2022/05/01 00:50:52;;;;;;;17.60;8.40;;;;;;;6.58;59.78;98850.85;106202;1277;137982;-86
2022/05/01 00:53:23;;;;;;;15.40;7.50;;;;;;;6.61;59.37;98850.27;106198;1277;24561;-84
2022/05/01 00:55:52;;;;;;;16.60;8.20;;;;;;;6.66;59.63;98850.55;106262;1277;22552;-86
2022/05/01 00:58:34;;;;;;;15.90;8.80;;;;;;;6.69;58.81;98848.31;106135;1277;136851;-85
2022/05/01 01:01:00;;;;;;;17.20;8.10;;;;;;;6.73;58.99;98845.98;106115;1277;22610;-85
2022/05/01 01:03:27;;;;;;;15.40;8.00;;;;;;;6.77;58.77;98846.55;106605;1274;137413;-86
2022/05/01 01:05:53;;;;;;;16.10;8.70;;;;;;;6.79;58.62;98843.30;106362;1276;23278;-85
2022/05/01 01:08:22;;;;;;;12.50;7.90;;;;;;;6.82;58.66;98844.13;106326;1277;137208;-85
2022/05/01 01:10:52;;;;;;;13.60;8.00;;;;;;;6.85;58.47;98845.69;106421;1277;22639;-85
2022/05/01 01:13:34;;;;;;;15.80;8.50;;;;;;;6.86;59.66;98846.40;106247;1277;22541;-86
2022/05/01 01:16:17;;;;;;;16.00;9.30;;;;;;;6.77;60.92;98843.42;106315;1277;137548;-85
2022/05/01 01:18:45;;;;;;;17.80;9.50;;;;;;;6.68;61.70;98845.85;106266;1280;23201;-85
2022/05/01 01:21:12;;;;;;;16.20;8.80;;;;;;;6.61;61.81;98851.39;106195;1277;137559;-86
2022/05/01 01:23:42;;;;;;;18.40;8.90;;;;;;;6.53;62.05;98849.83;106335;1277;25474;-85
2022/05/01 01:26:24;;;;;;;19.00;10.00;;;;;;;6.45;62.27;98850.82;106236;1278;137090;-85
2022/05/01 01:28:54;;;;;;;14.50;8.90;;;;;;;6.41;61.80;98849.66;106073;1280;22557;-85
2022/05/01 01:34:09;;;;;;;13.80;8.00;;;;;;;6.38;61.51;98844.20;106106;1280;137635;-86
2022/05/01 01:36:47;;;;;;;12.10;7.70;;;;;;;6.38;61.60;98846.91;106360;1277;24331;-87
2022/05/01 01:39:18;;;;;;;14.20;8.00;;;;;;;6.39;61.27;98841.95;106340;1277;137323;-85
2022/05/01 01:41:47;;;;;;;15.70;9.10;;;;;;;6.41;61.59;98839.70;106366;1277;23250;-86
2022/05/01 01:44:14;;;;;;;18.50;9.00;;;;;;;6.41;61.73;98837.00;106103;1277;137758;-86
2022/05/01 01:46:41;;;;;;;18.80;9.60;;;;;;;6.40;61.52;98835.05;106104;1277;22544;-85
2022/05/01 01:49:22;;;;;;;13.30;8.00;;;;;;;6.42;61.32;98834.96;106363;1277;25282;-86
2022/05/01 01:51:48;;;;;;;16.50;8.30;;;;;;;6.42;61.66;98828.64;106174;1277;136976;-85
2022/05/01 01:54:15;;;;;;;13.10;8.20;;;;;;;6.43;61.39;98831.81;106164;1277;22535;-86
2022/05/01 01:56:47;;;;;;;12.60;7.60;;;;;;;6.42;62.26;98837.92;106333;1277;137257;-85
2022/05/01 01:59:14;;;;;;;19.60;9.40;;;;;;;6.33;63.10;98835.77;106359;1277;22607;-86
2022/05/01 02:01:55;;;;;;;15.90;9.50;;;;;;;6.25;63.31;98832.05;106312;1277;24273;-86
2022/05/01 02:04:25;;;;;;;18.20;9.20;;;;;;;6.22;63.31;98827.89;106362;1277;137757;-86
2022/05/01 02:06:51;;;;;;;14.60;8.20;;;;;;;6.24;63.81;98825.18;106276;1277;22736;-86
2022/05/01 02:09:18;;;;;;;15.50;8.30;;;;;;;6.26;64.11;98828.10;106217;1277;137229;-86
2022/05/01 02:11:48;;;;;;;16.50;9.20;;;;;;;6.30;64.12;98825.45;106502;1277;22726;-86
2022/05/01 02:14:14;;;;;;;16.90;9.40;;;;;;;6.35;62.88;98829.31;106186;1277;137178;-84
2022/05/01 02:16:41;;;;;;;16.10;7.70;;;;;;;6.37;63.51;98832.09;106355;1277;22393;-88
2022/05/01 02:19:10;;;;;;;18.70;9.60;;;;;;;6.32;63.59;98834.09;106448;1277;22832;-85
2022/05/01 02:21:40;;;;;;;15.40;9.00;;;;;;;6.26;63.38;98833.77;106404;1277;137646;-85
2022/05/01 02:24:08;;;;;;;15.80;10.30;;;;;;;6.26;62.88;98829.56;106388;1277;22590;-86
2022/05/01 02:26:36;;;;;;;15.40;9.50;;;;;;;6.27;62.48;98833.42;106301;1278;137816;-86
2022/05/01 02:29:09;;;;;;;16.90;10.90;;;;;;;6.28;62.02;98831.31;106343;1277;22565;-86
2022/05/01 02:31:38;;;;;;;16.80;10.10;;;;;;;6.30;61.68;98829.94;106282;1277;22590;-86
2022/05/01 02:34:08;;;;;;;14.30;9.10;;;;;;;6.31;61.22;98824.31;106359;1277;137086;-86
2022/05/01 02:36:43;;;;;;;19.40;10.00;;;;;;;6.32;60.88;98820.98;106175;1278;22642;-86
2022/05/01 02:39:10;;;;;;;16.60;9.30;;;;;;;6.35;60.53;98823.23;106365;1277;137101;-86
2022/05/01 02:41:43;;;;;;;17.30;9.40;;;;;;;6.36;60.36;98827.48;106429;1277;23453;-86
2022/05/01 02:44:11;;;;;;;17.60;9.00;;;;;;;6.38;60.39;98823.98;106319;1277;24300;-85
2022/05/01 02:46:40;;;;;;;16.40;9.30;;;;;;;6.38;60.42;98817.15;106012;1277;137449;-85
2022/05/01 02:49:08;;;;;;;16.90;10.30;;;;;;;6.38;60.58;98817.45;106310;1277;22556;-86
2022/05/01 02:51:36;;;;;;;17.90;9.80;;;;;;;6.37;60.76;98822.86;106396;1277;137733;-85
2022/05/01 02:54:06;;;;;;;18.50;9.50;;;;;;;6.36;60.66;98824.39;106388;1276;24365;-86
2022/05/01 02:56:37;;;;;;;16.60;9.30;;;;;;;6.36;60.73;98824.86;106046;1277;137873;-87
2022/05/01 02:59:09;;;;;;;16.00;9.20;;;;;;;6.34;60.84;98826.36;106283;1278;25493;-87
2022/05/01 03:01:37;;;;;;;14.60;8.60;;;;;;;6.29;61.64;98825.23;106336;1278;22628;-87
2022/05/01 03:04:06;;;;;;;17.80;10.30;;;;;;;6.16;62.51;98827.94;106336;1277;137599;-86
2022/05/01 03:06:35;;;;;;;18.60;9.70;;;;;;;6.06;63.12;98829.05;106390;1277;22578;-85
2022/05/01 03:09:04;;;;;;;18.30;10.40;;;;;;;5.97;63.30;98827.55;106292;1277;137056;-85
2022/05/01 03:11:34;;;;;;;15.60;10.10;;;;;;;5.94;63.22;98830.96;106333;1278;22611;-85
2022/05/01 03:14:03;;;;;;;18.90;9.80;;;;;;;5.90;63.06;98832.20;106114;1280;22694;-86
2022/05/01 03:16:30;;;;;;;18.20;9.70;;;;;;;5.87;62.94;98826.13;106044;1278;137027;-85
2022/05/01 03:24:22;;;;;;;18.10;10.90;;;;;;;5.87;63.34;98823.84;106388;1277;22570;-85
2022/05/01 03:26:54;;;;;;;20.40;10.90;;;;;;;5.92;63.28;98822.39;106264;1277;137842;-87
2022/05/01 03:29:26;;;;;;;18.10;10.50;;;;;;;5.98;63.34;98825.25;106352;1278;22583;-86
2022/05/01 03:31:53;;;;;;;18.20;10.60;;;;;;;6.03;63.56;98827.09;106217;1278;25333;-86
2022/05/01 03:34:20;;;;;;;18.00;10.80;;;;;;;6.06;63.50;98825.17;106163;1278;137405;-86
2022/05/01 03:36:48;;;;;;;18.00;10.60;;;;;;;6.10;63.57;98826.52;106172;1281;23240;-86
2022/05/01 03:39:15;;;;;;;19.40;10.70;;;;;;;6.14;63.74;98826.23;106105;1281;137397;-86
2022/05/01 03:41:42;;;;;;;20.30;11.00;;;;;;;6.17;63.88;98828.67;106219;1278;23918;-87
2022/05/01 03:44:08;;;;;;;17.30;11.70;;;;;;;6.19;63.63;98824.39;106242;1277;22532;-86
2022/05/01 03:46:38;;;;;;;17.90;12.70;;;;;;;6.21;63.72;98824.44;106010;1278;137513;-86
2022/05/01 03:49:06;;;;;;;17.10;11.40;;;;;;;6.23;63.56;98828.39;106144;1281;22547;-86
2022/05/01 03:51:35;;;;;;;19.60;12.60;;;;;;;6.25;63.89;98826.43;105911;1281;137258;-86
2022/05/01 03:54:05;;;;;;;18.90;13.30;;;;;;;6.27;63.64;98823.73;106191;1277;25541;-86
2022/05/01 03:56:35;;;;;;;20.60;13.20;;;;;;;6.28;63.43;98822.81;106002;1277;137339;-85
2022/05/01 03:59:04;;;;;;;24.10;14.10;;;;;;;6.29;63.75;98821.94;106010;1277;22577;-87
2022/05/01 04:01:33;;;;;;;21.10;12.20;;;;;;;6.31;63.97;98825.11;106206;1277;25877;-84
2022/05/01 04:04:00;;;;;;;18.40;12.80;;;;;;;6.33;64.03;98828.52;106033;1278;137696;-87
2022/05/01 04:06:29;;;;;;;18.00;11.30;;;;;;;6.33;63.98;98826.11;106642;1277;24279;-87
2022/05/01 04:08:56;;;;;;;;;;;;;;;6.35;63.84;98827.98;106219;1277;137362;-87
2022/05/01 04:11:23;;;;;;;18.70;11.00;;;;;;;6.36;63.66;98829.85;106312;1281;22571;-86
2022/05/01 04:13:49;;;;;;;20.70;11.90;;;;;;;6.38;64.01;98829.55;106135;1278;22617;-86
2022/05/01 04:16:17;;;;;;;20.20;13.10;;;;;;;6.42;64.33;98832.88;106318;1278;138077;-86
2022/05/01 04:18:46;;;;;;;19.80;12.20;;;;;;;6.44;64.73;98826.77;106405;1277;22563;-86
2022/05/01 04:21:13;;;;;;;22.60;12.30;;;;;;;6.46;64.51;98831.77;106213;1278;137765;-85
2022/05/01 04:23:40;;;;;;;19.10;11.40;;;;;;;6.50;64.38;98836.34;106329;1277;23954;-86
2022/05/01 04:26:21;;;;;;;16.70;10.40;;;;;;;6.53;64.60;98835.49;106431;1277;22577;-86
2022/05/01 04:31:30;;;;;;;24.30;13.30;;;;;;;6.53;65.82;98838.49;106331;1277;24234;-86
2022/05/01 04:33:57;;;;;;;23.10;13.40;;;;;;;6.55;66.13;98836.73;106319;1277;138181;-86
2022/05/01 04:36:23;;;;;;;23.20;12.50;;;;;;;6.59;66.07;98834.55;106281;1278;23930;-86
2022/05/01 04:38:50;;;;;;;23.40;12.20;;;;;;;6.65;65.96;98831.86;106091;1278;137977;-86
2022/05/01 04:41:18;;;;;;;20.60;13.00;;;;;;;6.72;65.83;98834.22;106184;1278;22668;-86
2022/05/01 04:43:44;;;;;;;24.80;13.50;;;;;;;6.78;66.39;98832.96;106138;1278;22557;-86
2022/05/01 04:46:11;;;;;;;23.40;14.70;;;;;;;6.84;67.00;98831.45;106253;1277;137735;-86
2022/05/01 04:48:38;;;;;;;21.30;13.00;;;;;;;6.90;66.52;98832.23;106334;1281;25333;-86
2022/05/01 04:51:05;;;;;;;20.10;13.00;;;;;;;6.97;66.02;98836.23;106173;1278;137670;-86
2022/05/01 04:53:31;;;;;;;19.50;12.50;;;;;;;7.03;65.85;98835.66;106308;1277;23961;-86
2022/05/01 04:57:04;;;;;;;19.80;13.10;;;;;;;7.09;67.07;98834.11;106163;1277;24311;-86
2022/05/01 04:58:59;;;;;;;22.60;14.10;;;;;;;7.14;68.05;98838.34;106130;1277;137156;-86
2022/05/01 05:01:26;;;;;;;27.30;14.60;;;;;;;7.19;68.04;98838.02;106112;1277;22560;-87
2022/05/01 05:03:52;;;;;;;22.80;12.80;;;;;;;7.25;68.11;98838.09;105864;1278;137752;-88
2022/05/01 05:06:33;;;;;;;19.50;12.00;;;;;;;7.28;68.49;98839.87;105977;1277;22730;-87
2022/05/01 05:11:54;;;;;;;26.40;15.50;;;;;;;7.36;68.91;98836.09;106653;1277;25369;-86
2022/05/01 05:14:21;;;;;;;28.90;15.80;;;;;;;7.43;69.23;98839.01;106374;1277;23544;-87
2022/05/01 05:17:06;;;;;;;23.70;13.50;;;;;;;7.50;68.30;98840.86;106107;1277;137184;-86
2022/05/01 05:19:48;;;;;;;18.80;13.60;;;;;;;7.61;67.49;98841.39;106299;1277;24326;-86
2022/05/01 05:22:15;;;;;;;21.20;12.90;;;;;;;7.73;66.83;98841.83;106343;1278;137567;-86
2022/05/01 05:24:42;;;;;;;22.40;13.70;;;;;;;7.85;66.19;98843.77;106213;1277;24268;-86
2022/05/01 05:27:09;;;;;;;22.90;12.70;;;;;;;7.96;65.71;98841.06;106194;1277;137425;-85
2022/05/01 05:29:36;;;;;;;20.60;13.10;;;;;;;8.09;65.20;98846.20;106259;1280;23311;-86
2022/05/01 05:32:02;;;;;;;20.00;13.40;;;;;;;8.20;64.01;98847.95;106445;1277;23288;-86
2022/05/01 05:34:29;;;;;;;21.20;13.10;;;;;;;8.34;63.44;98851.34;106349;1277;137142;-87
2022/05/01 05:36:55;;;;;;;19.90;13.20;;;;;;;8.46;62.97;98849.91;106265;1277;22718;-87
2022/05/01 05:39:36;;;;;;;20.60;13.10;;;;;;;8.60;62.90;98848.45;106217;1277;137221;-87
2022/05/01 05:42:03;;;;;;;21.50;13.10;;;;;;;8.72;63.05;98849.80;106324;1277;25328;-87
2022/05/01 05:44:30;;;;;;;21.20;13.30;;;;;;;8.82;62.69;98847.58;106534;1277;23186;-87
2022/05/01 05:46:56;;;;;;;21.40;12.90;;;;;;;8.93;62.38;98849.92;106292;1277;137965;-86
2022/05/01 05:49:23;;;;;;;22.30;14.90;;;;;;;9.05;62.01;98851.16;106315;1277;25337;-86
2022/05/01 05:51:49;;;;;;;19.70;13.90;;;;;;;9.16;61.41;98859.48;106218;1277;137826;-86
2022/05/01 05:54:15;;;;;;;20.70;13.50;;;;;;;9.27;60.92;98860.02;106217;1277;24365;-86
2022/05/01 05:56:42;;;;;;;20.10;14.30;;;;;;;9.38;60.67;98856.75;106219;1277;137437;-86
2022/05/01 05:59:08;;;;;;;21.50;12.70;;;;;;;9.48;60.85;98860.69;106415;1277;22713;-86
2022/05/01 06:01:35;;;;;;;21.20;13.50;;;;;;;9.60;60.23;98859.88;106432;1277;24205;-86
2022/05/01 06:04:01;;;;;;;19.30;13.30;;;;;;;9.70;60.18;98862.83;106128;1277;137893;-87
2022/05/01 06:06:28;;;;;;;21.10;13.30;;;;;;;9.80;59.59;98863.30;106330;1277;24442;-86
2022/05/01 06:08:54;;;;;;;18.30;12.80;;;;;;;9.87;59.77;98864.66;106220;1277;137619;-87
2022/05/01 06:11:36;;;;;;;20.30;13.80;;;;;;;9.98;59.39;98862.38;106420;1277;22559;-86
2022/05/01 06:14:17;;;;;;;19.20;12.00;;;;;;;10.08;59.11;98862.44;106361;1277;22686;-86
2022/05/01 06:16:58;;;;;;;18.90;12.60;;;;;;;10.19;59.40;98861.45;106190;1277;137261;-86
2022/05/01 06:19:39;;;;;;;19.40;12.60;;;;;;;10.31;59.44;98862.33;106506;1277;22582;-86
2022/05/01 06:22:20;;;;;;;19.80;12.10;;;;;;;10.41;59.27;98861.40;106148;1277;137763;-86
2022/05/01 06:24:46;;;;;;;18.20;12.90;;;;;;;10.51;58.95;98861.10;106237;1277;23085;-86
2022/05/01 06:27:13;;;;;;;20.80;12.60;;;;;;;10.62;58.87;98864.31;105999;1277;302125;-85
2022/05/01 06:29:54;;;;;;;21.30;13.20;;;;;;;10.74;59.08;98868.84;106085;1277;22570;-86
2022/05/01 06:32:43;;;;;;;18.70;12.90;;;;;;;10.84;58.79;98870.06;106312;1277;22580;-86
2022/05/01 06:35:31;;;;;;;21.90;12.80;;;;;;;10.98;58.29;98865.44;106336;1277;22646;-87
2022/05/01 06:37:58;;;;;;;16.00;11.70;;;;;;;11.10;58.27;98868.75;106221;1277;22716;-85
2022/05/01 06:40:25;;;;;;;21.30;14.40;;;;;;;11.20;57.71;98866.29;106119;1277;137731;-85
2022/05/01 06:42:52;;;;;;;21.90;12.80;;;;;;;11.31;57.25;98865.01;106325;1277;25384;-84
2022/05/01 06:45:18;;;;;;;18.80;13.00;;;;;;;11.41;57.02;98861.36;106166;1277;137982;-87
2022/05/01 06:47:45;;;;;;;20.40;12.90;;;;;;;11.51;56.86;98858.51;106211;1277;24279;-83
2022/05/01 06:50:11;;;;;;;19.30;13.50;;;;;;;11.62;56.33;98857.80;106201;1277;22568;-84
2022/05/01 06:52:38;;;;;;;18.50;13.00;;;;;;;11.71;56.24;98857.92;106171;1277;137735;-85
2022/05/01 06:55:05;;;;;;;18.30;13.10;;;;;;;11.80;55.83;98858.36;106300;1277;22625;-85
2022/05/01 06:57:32;;;;;;;23.40;12.90;;;;;;;11.89;56.17;98856.98;106409;1277;138562;-85
2022/05/01 06:59:58;;;;;;;21.00;14.00;;;;;;;12.00;55.41;98860.35;106473;1277;22636;-87
2022/05/01 07:02:25;;;;;;;19.20;14.00;;;;;;;12.10;55.37;98863.38;106342;1277;22576;-87
2022/05/01 07:04:52;;;;;;;20.40;13.80;;;;;;;12.19;54.95;98863.27;106121;1277;137575;-86
2022/05/01 07:07:33;;;;;;;19.30;13.60;;;;;;;12.31;55.11;98861.63;106208;1277;25664;-87
2022/05/01 07:09:59;;;;;;;19.90;14.20;;;;;;;12.40;55.28;98864.40;106041;1280;137517;-87
2022/05/01 07:12:40;;;;;;;19.30;13.50;;;;;;;12.52;54.91;98862.09;106229;1277;22726;-88
2022/05/01 07:15:07;;;;;;;20.30;13.60;;;;;;;12.63;54.70;98862.33;106165;1280;22631;-88
2022/05/01 07:17:35;;;;;;;22.60;13.70;;;;;;;12.72;54.40;98860.98;105877;1280;137561;-88
2022/05/01 07:20:03;;;;;;;20.40;13.30;;;;;;;12.84;54.53;98859.48;106194;1277;25512;-86
2022/05/01 07:22:30;;;;;;;19.20;13.50;;;;;;;12.96;54.65;98863.88;106320;1277;137470;-86
2022/05/01 07:24:57;;;;;;;19.30;13.40;;;;;;;13.07;54.24;98861.02;106425;1277;22548;-86
2022/05/01 07:27:25;;;;;;;20.90;14.20;;;;;;;13.17;53.78;98856.02;106204;1277;137881;-87
2022/05/01 07:29:52;;;;;;;20.60;13.50;;;;;;;13.28;53.40;98855.58;106398;1277;25272;-84
2022/05/01 07:32:21;;;;;;;19.30;13.30;;;;;;;13.39;53.51;98853.73;106322;1277;25405;-86
2022/05/01 07:34:47;;;;;;;;;;;;;;;13.51;53.27;98854.15;106227;1277;137512;-86
2022/05/01 07:37:20;;;;;;;20.80;14.10;;;;;;;13.63;52.98;98851.80;106328;1277;22645;-86
2022/05/01 07:40:02;;;;;;;17.80;13.60;;;;;;;13.75;52.32;98847.71;106284;1277;137559;-86
2022/05/01 07:42:29;;;;;;;18.50;13.20;;;;;;;13.86;52.48;98851.45;106323;1277;22675;-86
2022/05/01 07:45:10;;;;;;;18.50;12.80;;;;;;;14.00;51.63;98847.88;106278;1277;25516;-86
2022/05/01 07:47:36;;;;;;;21.10;12.70;;;;;;;14.10;51.71;98845.68;106254;1277;137886;-85
2022/05/01 07:50:06;;;;;;;16.20;13.30;;;;;;;14.24;51.66;98842.80;106328;1277;24207;-86
2022/05/01 07:52:36;;;;;;;18.40;12.60;;;;;;;14.36;51.26;98838.30;106522;1277;137777;-86
2022/05/01 07:55:04;;;;;;;17.10;12.80;;;;;;;14.48;50.80;98839.45;106011;1280;22567;-85
2022/05/01 07:57:45;;;;;;;17.60;12.40;;;;;;;14.62;50.37;98839.71;105998;1277;137996;-85
2022/05/01 08:00:13;;;;;;;17.30;11.80;;;;;;;14.74;50.03;98839.31;106151;1277;22567;-86
2022/05/01 08:05:29;;;;;;;15.70;10.90;;;;;;;14.99;48.99;98833.27;105859;1277;137492;-86
2022/05/01 08:08:33;;;;;;;14.80;11.00;;;;;;;15.13;49.20;98833.80;106184;1277;22662;-86
2022/05/01 08:11:19;;;;;;;12.90;10.30;;;;;;;15.29;48.07;98830.14;106107;1277;137546;-86
2022/05/01 08:13:46;;;;;;;13.60;9.80;;;;;;;15.41;47.96;98825.98;106109;1277;22551;-86
2022/05/01 08:16:13;;;;;;;16.20;11.30;;;;;;;15.55;47.55;98824.11;106050;1277;137975;-86
2022/05/01 08:21:24;;;;;;;10.30;7.60;;;;;;;15.81;45.43;98821.00;105742;1277;137421;-84
2022/05/01 08:23:52;;;;;;;13.20;8.90;;;;;;;15.94;45.43;98819.44;105825;1277;22697;-85
2022/05/01 08:26:18;;;;;;;10.00;8.30;;;;;;;16.08;44.46;98819.09;106068;1275;30402;-86
2022/05/01 08:28:46;;;;;;;14.40;8.40;;;;;;;16.21;44.08;98818.43;105972;1277;138121;-85
2022/05/01 08:31:13;;;;;;;14.90;9.60;;;;;;;16.34;44.37;98811.74;105880;1277;24275;-85
2022/05/01 08:33:59;;;;;;;11.80;7.80;;;;;;;16.53;44.68;98815.16;105884;1280;137858;-83
2022/05/01 08:36:29;;;;;;;11.70;7.00;;;;;;;16.66;43.21;98813.33;106036;1277;22548;-90
2022/05/01 08:38:56;;;;;;;13.10;7.20;;;;;;;16.77;42.17;98811.62;105607;1277;22566;-83
2022/05/01 08:41:28;;;;;;;13.10;7.90;;;;;;;16.86;41.69;98808.98;105603;1277;137733;-82
2022/05/01 08:43:57;;;;;;;13.70;7.60;;;;;;;16.97;41.70;98809.20;105611;1280;25556;-82
2022/05/01 08:46:33;;;;;;;12.90;8.70;;;;;;;17.09;41.18;98807.18;105791;1277;137356;-81
2022/05/01 08:49:03;;;;;;;10.80;7.60;;;;;;;17.26;41.67;98801.73;106008;1277;22791;-85
2022/05/01 08:51:40;;;;;;;9.70;8.10;;;;;;;17.40;40.98;98798.49;106104;1277;137537;-84
2022/05/01 08:54:11;;;;;;;9.40;7.00;;;;;;;17.54;40.97;98798.27;106126;1277;23964;-83
2022/05/01 08:56:41;;;;;;;9.80;7.40;;;;;;;17.67;40.15;98800.09;106112;1277;22657;-84
2022/05/01 08:59:17;;;;;;;10.90;8.00;;;;;;;17.78;39.97;98792.48;105850;1277;137121;-83
2022/05/01 09:01:45;;;;;;;9.50;7.70;;;;;;;17.89;39.43;98791.61;105993;1277;25062;-85
2022/05/01 09:04:14;;;;;;;10.10;7.60;;;;;;;17.96;39.17;98788.75;106013;1277;137314;-84
2022/05/01 09:06:43;;;;;;;12.30;8.30;;;;;;;18.05;39.36;98789.52;106065;1277;25445;-84
2022/05/01 09:09:16;;;;;;;11.80;7.10;;;;;;;18.12;38.86;98790.86;106550;1277;22568;-84
2022/05/01 09:14:25;;;;;;;8.20;6.30;;;;;;;18.26;38.36;98788.10;106389;1277;23303;-83
2022/05/01 09:17:09;;;;;;;9.10;7.20;;;;;;;18.38;38.37;98782.67;106176;1277;137185;-84
2022/05/01 09:19:48;;;;;;;10.20;7.00;;;;;;;18.54;38.72;98781.36;106530;1277;25335;-83
2022/05/01 09:22:23;;;;;;;7.50;6.30;;;;;;;18.71;38.12;98777.63;106495;1277;137858;-84
2022/05/01 09:24:53;;;;;;;7.80;6.80;;;;;;;18.86;37.76;98776.23;106179;1277;24211;-83
2022/05/01 09:27:32;;;;;;;8.80;6.70;;;;;;;18.99;38.16;98767.59;106048;1277;22769;-85
2022/05/01 09:30:12;;;;;;;9.70;7.00;;;;;;;19.19;38.45;98767.20;105854;1277;137031;-83
2022/05/01 09:32:41;;;;;;;10.20;7.00;;;;;;;19.35;37.58;98766.73;105983;1277;22558;-84
2022/05/01 09:35:16;;;;;;;8.20;6.00;;;;;;;19.44;37.63;98766.13;105934;1277;137451;-84
2022/05/01 09:37:44;;;;;;;9.80;6.30;;;;;;;19.56;37.16;98767.96;105902;1277;24380;-83
2022/05/01 09:40:11;;;;;;;11.00;7.40;;;;;;;19.68;36.90;98767.23;105942;1277;137928;-83
2022/05/01 09:42:37;;;;;;;10.70;6.10;;;;;;;19.82;37.06;98762.77;106014;1277;24234;-85
2022/05/01 09:45:18;;;;;;;7.00;5.90;;;;;;;19.94;36.08;98764.08;105993;1277;24376;-84
2022/05/01 09:47:45;;;;;;;6.90;5.60;;;;;;;20.07;35.49;98763.94;105925;1277;137205;-84
2022/05/01 09:50:14;;;;;;;7.60;6.10;;;;;;;20.16;34.61;98761.15;106017;1277;22636;-85
2022/05/01 09:53:10;;;;;;;7.90;5.90;;;;;;;20.18;33.92;98758.63;106353;1277;137211;-85
2022/05/01 09:55:37;;;;;;;9.00;5.80;;;;;;;20.18;34.44;98757.96;105952;1277;25371;-84
2022/05/01 09:58:09;;;;;;;9.10;6.00;;;;;;;20.22;34.24;98752.36;106124;1277;137326;-84
2022/05/01 10:00:44;;;;;;;6.80;5.20;;;;;;;20.33;34.68;98751.90;106150;1277;22723;-84
2022/05/01 10:03:28;;;;;;;8.10;5.40;;;;;;;20.47;34.28;98748.52;105996;1277;23961;-85
2022/05/01 10:05:57;;;;;;;6.60;5.30;;;;;;;20.56;34.25;98745.27;106039;1277;137234;-83
2022/05/01 10:08:24;;;;;;;5.90;5.20;;;;;;;20.66;33.96;98743.02;106101;1277;22563;-87
2022/05/01 10:11:05;;;;;;;6.40;5.10;;;;;;;20.77;32.90;98745.30;106036;1277;137820;-83
2022/05/01 10:13:47;;;;;;;8.90;5.30;;;;;;;20.83;32.29;98741.53;105898;1278;24263;-85
2022/05/01 10:16:18;;;;;;;8.90;6.30;;;;;;;20.90;32.67;98739.02;105706;1277;137815;-84
2022/05/01 10:19:00;;;;;;;8.40;5.90;;;;;;;21.06;33.81;98739.99;105850;1277;30509;-85
2022/05/01 10:21:46;;;;;;;8.70;6.10;;;;;;;21.24;33.49;98726.88;106118;1277;137298;-83
2022/05/01 10:24:13;;;;;;;8.90;6.10;;;;;;;21.30;32.60;98722.48;106112;1277;24276;-84
2022/05/01 10:26:53;;;;;;;6.40;5.50;;;;;;;21.34;32.08;98723.63;105968;1277;22483;-84
2022/05/01 10:29:40;;;;;;;7.00;5.20;;;;;;;21.44;32.44;98723.76;105929;1277;137753;-85
2022/05/01 10:32:28;;;;;;;6.50;5.10;;;;;;;21.58;32.51;98722.26;106020;1277;22583;-85
2022/05/01 10:35:04;;;;;;;8.70;5.10;;;;;;;21.71;31.87;98717.40;106054;1277;137123;-85
2022/05/01 10:38:02;;;;;;;6.30;5.00;;;;;;;21.77;31.62;98715.90;106079;1277;25267;-85
2022/05/01 10:41:11;;;;;;;7.50;4.90;;;;;;;21.75;30.87;98710.45;105986;1277;137305;-83
2022/05/01 10:43:38;;;;;;;8.20;4.70;;;;;;;21.81;31.98;98707.32;105983;1277;25274;-84
2022/05/01 10:46:24;;;;;;;6.10;4.20;;;;;;;21.95;31.64;98709.02;105967;1277;137477;-85
2022/05/01 10:48:52;;;;;;;8.80;5.10;;;;;;;22.05;29.50;98702.71;106168;1277;22634;-84
2022/05/01 10:51:31;;;;;;;7.00;5.20;;;;;;;22.08;29.77;98702.91;106272;1277;23133;-84
2022/05/01 10:54:16;;;;;;;5.20;4.30;;;;;;;22.13;29.64;98701.21;106644;1277;137213;-85
2022/05/01 10:57:11;;;;;;;5.70;4.50;;;;;;;22.21;29.28;98702.14;106942;1277;24443;-85
2022/05/01 11:00:11;;;;;;;6.50;4.60;;;;;;;22.24;29.23;98704.15;106369;1277;137737;-84
2022/05/01 11:02:51;;;;;;;7.70;5.10;;;;;;;22.28;29.04;98701.89;106637;1277;25260;-84
2022/05/01 11:05:42;;;;;;;6.00;4.60;;;;;;;22.22;28.39;98693.17;106076;1277;137642;-85
2022/05/01 11:08:24;;;;;;;7.60;4.60;;;;;;;22.13;28.83;98697.85;106087;1277;22551;-84
2022/05/01 11:10:54;;;;;;;5.30;4.80;;;;;;;22.19;29.33;98699.84;106023;1277;137519;-85
2022/05/01 11:13:28;;;;;;;5.50;4.30;;;;;;;22.32;29.24;98694.34;105987;1277;23350;-84
2022/05/01 11:15:55;;;;;;;5.40;4.90;;;;;;;22.47;28.94;98695.95;106766;1277;137688;-84
2022/05/01 11:18:50;;;;;;;7.00;4.90;;;;;;;22.61;28.93;98691.30;106772;1277;23610;-84
2022/05/01 11:21:58;;;;;;;5.70;4.70;;;;;;;22.82;28.46;98689.05;106785;1277;138332;-84
2022/05/01 11:25:02;;;;;;;7.00;5.30;;;;;;;23.02;28.60;98681.97;107056;1276;23453;-85
2022/05/01 11:27:50;;;;;;;7.40;4.80;;;;;;;23.14;28.23;98681.73;107402;1276;22576;-84
2022/05/01 11:30:26;;;;;;;7.60;5.40;;;;;;;23.31;28.08;98681.41;106898;1277;137217;-84
2022/05/01 11:33:14;;;;;;;8.60;5.10;;;;;;;23.50;28.55;98675.48;106432;1277;22575;-85
2022/05/01 11:36:42;;;;;;;9.30;5.70;;;;;;;23.63;27.61;98668.70;106528;1277;137292;-84
2022/05/01 11:39:50;;;;;;;7.20;4.90;;;;;;;23.69;27.71;98672.39;106156;1280;26631;-83
2022/05/01 11:42:36;;;;;;;5.60;4.90;;;;;;;23.68;27.55;98667.45;105851;1280;137156;-84
2022/05/01 11:45:08;;;;;;;5.70;5.20;;;;;;;23.51;26.84;98665.67;105934;1280;23230;-84
2022/05/01 11:47:35;;;;;;;5.10;4.60;;;;;;;23.41;26.99;98666.41;105851;1280;137276;-86
2022/05/01 11:50:03;;;;;;;7.70;5.30;;;;;;;23.49;26.89;98662.23;105715;1280;25631;-84
2022/05/01 11:53:31;;;;;;;7.00;4.60;;;;;;;23.58;26.56;98658.39;106113;1280;137946;-83
2022/05/01 12:04:28;;;;;;;6.80;5.00;;;;;;;22.88;26.28;98654.95;105701;1280;137455;-83
2022/05/01 12:07:12;;;;;;;9.60;4.50;;;;;;;22.65;27.34;98656.38;106041;1280;24357;-84
2022/05/01 12:09:51;;;;;;;5.10;4.20;;;;;;;22.50;27.52;98654.90;106069;1280;25551;-84
2022/05/01 12:12:41;;;;;;;6.30;4.30;;;;;;;22.36;26.75;98655.23;105832;1280;137620;-84
2022/05/01 12:15:25;;;;;;;5.20;4.00;;;;;;;22.39;26.96;98650.30;105829;1280;30596;-83
2022/05/01 12:17:52;;;;;;;5.40;4.20;;;;;;;22.49;27.72;98655.82;105904;1277;137653;-84